Flight Track Log - Related Links

Times and Time Zones

All times are in EDT time to prevent confusion due to time zone crossing. See the N468QS flight status page for this flight to view local times or setup timezone preferences in your user account.

Time Position Orientation Groundspeed Altitude Reporting Facility
EDT Latitude Longitude Course Direction KTS MPH feet Rate Location/Type
Tue 05:37:30 PM 40.7167 -74.2333 346° North 204 235 2,000  Level New York TRACON
Tue 05:38:24 PM 40.7667 -74.2500 346° North 208 239 3,000 2,105 Climbing New York TRACON
Tue 05:39:24 PM 40.8333 -74.2667 349° North 250 288 6,000 1,550 Climbing New York TRACON
Tue 05:40:24 PM 40.9000 -74.2333 21° North 261 300 6,100  Climbing New York TRACON
Tue 05:41:30 PM 40.9667 -74.2000 21° North 253 291 6,000 -48 Descending New York TRACON
Tue 05:42:30 PM 41.0333 -74.1833 11° North 255 293 6,000 53 Level New York TRACON
Tue 05:43:24 PM 41.1000 -74.1500 21° North 256 295 6,100 1,850 Climbing New York TRACON
Tue 05:44:30 PM 41.1667 -74.1000 29° Northeast 277 319 9,700 2,407 Climbing New York TRACON
Tue 05:46:16 PM 41.1889 -73.8744 82° East 356 410 13,000 1,193 Climbing Boston Center
Tue 05:47:16 PM 41.2028 -73.7478 82° East 373 429 13,000 50 Level Boston Center
Tue 05:48:17 PM 41.2211 -73.5964 81° East 373 429 13,100 1,008 Climbing Boston Center
Tue 05:49:15 PM 41.2350 -73.4697 82° East 373 429 15,000 1,983 Climbing Boston Center
Tue 05:50:15 PM 41.2528 -73.3181 81° East 395 455 17,000 1,041 Climbing Boston Center
Tue 05:51:16 PM 41.2706 -73.1528 82° East 407 468 17,100 50 Climbing Boston Center
Tue 05:52:16 PM 41.2797 -73.0147 85° East 412 474 17,100 -50 Level Boston Center
Tue 05:53:15 PM 41.2908 -72.8461 85° East 412 474 17,000 -50 Descending Boston Center
Tue 05:54:15 PM 41.2975 -72.7108 86° East 412 474 17,000  Level Boston Center
Tue 05:55:17 PM 41.3042 -72.5394 87° East 412 474 17,000  Level Boston Center
Tue 05:56:15 PM 41.3125 -72.3986 85° East 420 483 17,000  Level Boston Center
Tue 05:57:16 PM 41.3228 -72.2300 85° East 420 483 17,000  Level Boston Center
Tue 05:58:16 PM 41.3308 -72.0892 86° East 420 483 17,000  Level Boston Center
Tue 05:59:16 PM 41.3383 -71.9203 87° East 420 483 17,000  Level Boston Center
Tue 06:00:17 PM 41.3461 -71.7819 86° East 420 483 17,000  Level Boston Center
Tue 06:01:17 PM 41.3533 -71.6106 87° East 420 483 17,000 -51 Level Boston Center
Tue 06:02:15 PM 41.3583 -71.4722 87° East 420 483 16,900 -864 Descending Boston Center
Tue 06:03:15 PM 41.3653 -71.3061 87° East 420 483 15,300 -1,488 Descending Boston Center
Tue 06:04:16 PM 41.3722 -71.1733 86° East 406 467 13,900 -1,488 Descending Boston Center
Tue 06:05:16 PM 41.3786 -71.0153 87° East 394 453 12,300 -1,438 Descending Boston Center
Tue 06:06:17 PM 41.3811 -70.8908 88° East 384 442 11,000 -655 Descending Boston Center
Tue 06:07:15 PM 41.3914 -70.7356 85° East 378 435 11,000 -353 Level Boston Center
Tue 06:08:16 PM 41.3958 -70.6219 87° East 366 421 10,300 -1,180 Descending Boston Center
Tue 06:09:17 PM 41.4125 -70.5053 79° East 310 357 8,600 -1,785 Descending Boston Center
Tue 06:10:17 PM 41.4531 -70.4264 56° Northeast 281 323 6,700 -1,576 Descending Boston Center
Tue 06:11:15 PM 41.4908 -70.3394 60° Northeast 276 318 5,500 -1,119 Descending Boston Center
Tue 06:12:15 PM 41.5228 -70.2606 62° Northeast 260 299 4,500 -1,289 Descending Boston Center
Tue 06:13:16 PM 41.5592 -70.2039 49° Northeast 228 262 2,900 -1,377 Descending Boston Center
Tue 06:14:17 PM 41.6008 -70.2053 359° North 179 206 1,700 -992 Descending Boston Center
Tue 06:15:17 PM 41.6289 -70.2461 313° West 128 147 900 -750 Descending Boston Center
Tue 06:16:17 PM 41.6586 -70.2783 321° Northwest 128 147 200 -407 Descending Boston Center
Tue 06:17:15 PM 41.6944 -70.3050 331° Northwest 128 147 100 5,492 Descending Boston Center
Tue 06:18:15 PM 41.7264 -70.3317 328° Northwest 128 147 11,000 5,405 Climbing Boston Center
Tue 06:19:16 PM 41.7581 -70.3583 328° Northwest 128 147 11,000  Level Boston Center
Tue 06:21:00 PM 41.6693 -70.2804 147° Southeast  Level Estimated
Tue 06:28:00 PM 41.6693 -70.2804 346° North  Level Estimated
Tue 06:29:00 PM 41.6693 -70.2804 346° North  Level Estimated
Tue 06:30:00 PM 41.6693 -70.2804 346° North  Level Estimated
Tue 06:31:00 PM 41.6693 -70.2804 346° North  Level Estimated

Login

Don't have an account? Register now (free) for customized features, flight alerts, and more!